Time;durP1;ratioP1;P1;durP2;ratioP2;P2;SDS_P1;SDS_P2;PMS_P1;PMS_P2;Temp;Humidity;BMP_temperature;BMP_pressure;BME280_temperature;BME280_humidity;BME280_pressure;Samples;Min_cycle;Max_cycle;Signal;HPM_P1;HPM_P2
2022/01/19 00:00:21;;;;;;;30.90;16.52;;;6.50;99.90;;;;;;5129721;27;20483;-74
2022/01/19 00:02:47;;;;;;;32.40;17.42;;;6.60;99.90;;;;;;5126718;27;20469;-76
2022/01/19 00:05:13;;;;;;;29.58;15.48;;;6.40;99.90;;;;;;5113692;27;20043;-74
2022/01/19 00:07:39;;;;;;;31.42;16.15;;;6.70;99.90;;;;;;5110424;27;20109;-77
2022/01/19 00:10:09;;;;;;;27.00;15.25;;;6.40;99.90;;;;;;5127036;27;20455;-74
2022/01/19 00:12:36;;;;;;;30.55;14.93;;;6.50;99.90;;;;;;5098171;27;20035;-74
2022/01/19 00:15:03;;;;;;;25.92;12.45;;;6.10;99.90;;;;;;5124443;27;20050;-73
2022/01/19 00:17:28;;;;;;;30.08;14.93;;;6.50;99.90;;;;;;5125930;27;20034;-73
2022/01/19 00:19:54;;;;;;;26.02;12.57;;;6.20;99.90;;;;;;5124668;27;20091;-74
2022/01/19 00:22:20;;;;;;;33.67;13.85;;;5.80;99.90;;;;;;5130423;27;20363;-73
2022/01/19 00:24:45;;;;;;;27.35;12.73;;;6.50;99.90;;;;;;5131451;27;20121;-74
2022/01/19 00:27:11;;;;;;;33.95;16.10;;;6.50;99.90;;;;;;5128588;27;20064;-73
2022/01/19 00:29:37;;;;;;;34.17;14.98;;;6.30;99.90;;;;;;5134691;27;20110;-73
2022/01/19 00:32:03;;;;;;;31.50;13.98;;;6.50;99.90;;;;;;5116174;27;20125;-73
2022/01/19 00:34:29;;;;;;;28.08;13.18;;;6.10;99.90;;;;;;5133818;27;20363;-74
2022/01/19 00:36:56;;;;;;;35.88;14.38;;;6.10;99.90;;;;;;5115883;27;20038;-72
2022/01/19 00:39:24;;;;;;;35.42;14.35;;;6.20;99.90;;;;;;5116622;27;20038;-72
2022/01/19 00:41:50;;;;;;;39.97;15.55;;;6.50;99.90;;;;;;5134775;27;20045;-72
2022/01/19 00:44:16;;;;;;;43.97;17.45;;;6.40;99.90;;;;;;5083741;27;20042;-72
2022/01/19 00:46:42;;;;;;;45.10;17.00;;;6.50;99.90;;;;;;5131731;27;20026;-72
2022/01/19 00:49:08;;;;;;;37.15;16.83;;;6.30;99.90;;;;;;5115196;27;20030;-73
2022/01/19 00:51:33;;;;;;;46.28;16.90;;;6.20;99.90;;;;;;5130074;27;20096;-75
2022/01/19 00:53:59;;;;;;;41.72;15.90;;;6.50;99.90;;;;;;5131940;27;20088;-75
2022/01/19 00:56:25;;;;;;;38.67;15.52;;;6.20;99.90;;;;;;5114549;27;20046;-75
2022/01/19 00:58:50;;;;;;;45.10;16.25;;;6.90;99.90;;;;;;5107775;27;20058;-74
2022/01/19 01:01:16;;;;;;;44.75;18.38;;;6.40;99.90;;;;;;5132231;27;20041;-74
2022/01/19 01:03:42;;;;;;;44.13;17.20;;;7.00;99.90;;;;;;5114750;27;20078;-75
2022/01/19 01:06:07;;;;;;;50.05;19.23;;;6.30;99.90;;;;;;5113518;27;20047;-73
2022/01/19 01:08:33;;;;;;;45.92;18.52;;;6.30;99.90;;;;;;5109839;27;20038;-73
2022/01/19 01:10:59;;;;;;;57.63;19.67;;;6.60;99.90;;;;;;5113472;27;20046;-73
2022/01/19 01:16:05;;;;;;;51.88;18.15;;;6.50;99.90;;;;;;5116576;27;20121;-74
2022/01/19 01:18:33;;;;;;;39.10;14.32;;;7.10;99.90;;;;;;5109864;27;20147;-73
2022/01/19 01:21:00;;;;;;;48.85;20.33;;;6.30;99.90;;;;;;5113449;27;20054;-74
2022/01/19 01:23:29;;;;;;;47.35;18.00;;;7.20;99.90;;;;;;5128960;27;20046;-73
2022/01/19 01:25:55;;;;;;;47.63;17.38;;;7.20;99.90;;;;;;5131698;27;20074;-73
2022/01/19 01:28:21;;;;;;;49.38;20.23;;;6.30;99.90;;;;;;5130517;27;20042;-74
2022/01/19 01:30:47;;;;;;;47.00;18.77;;;7.10;99.90;;;;;;5110906;27;20047;-74
2022/01/19 01:33:13;;;;;;;46.30;17.73;;;6.50;99.90;;;;;;5128297;27;20030;-76
2022/01/19 01:35:39;;;;;;;53.70;19.63;;;7.20;99.90;;;;;;5130026;27;20061;-74
2022/01/19 01:38:06;;;;;;;49.20;18.55;;;6.30;99.90;;;;;;5131229;27;21800;-75
2022/01/19 01:40:34;;;;;;;40.00;16.80;;;6.50;99.90;;;;;;5112987;27;20091;-75
2022/01/19 01:43:01;;;;;;;43.75;17.73;;;6.50;99.90;;;;;;5110015;27;20057;-74
2022/01/19 01:45:31;;;;;;;53.17;19.35;;;7.30;99.90;;;;;;5112842;27;20030;-73
2022/01/19 01:48:05;;;;;;;47.35;20.70;;;6.50;99.90;;;;;;5129594;27;20061;-74
2022/01/19 01:53:26;;;;;;;48.97;19.02;;;7.40;99.90;;;;;;5131123;27;20084;-75
2022/01/19 01:56:01;;;;;;;46.85;20.90;;;7.40;99.90;;;;;;5131735;27;20379;-74
2022/01/19 01:58:29;;;;;;;57.20;20.73;;;7.20;99.90;;;;;;5130353;27;20043;-74
2022/01/19 02:00:55;;;;;;;50.70;20.52;;;7.30;99.90;;;;;;5127670;27;20042;-76
2022/01/19 02:03:21;;;;;;;50.47;19.90;;;6.70;99.90;;;;;;5130380;27;20108;-75
2022/01/19 02:08:34;;;;;;;54.85;21.77;;;7.30;99.90;;;;;;5131348;27;20050;-75
2022/01/19 02:16:43;;;;;;;;;;;7.60;99.90;;;;;;5116798;27;20042;-75
2022/01/19 02:22:03;;;;;;;54.33;20.88;;;6.70;99.90;;;;;;5130730;27;20091;-75
2022/01/19 02:24:41;;;;;;;48.35;19.85;;;6.80;99.90;;;;;;5114499;27;20034;-76
2022/01/19 02:28:57;;;;;;;49.05;20.98;;;7.40;99.90;;;;;;5129864;27;20490;-74
2022/01/19 02:31:06;;;;;;;50.70;20.58;;;7.30;99.90;;;;;;5129205;27;20512;-75
2022/01/19 02:40:59;;;;;;;60.58;22.63;;;7.40;99.90;;;;;;5116608;27;20520;-74
2022/01/19 02:43:27;;;;;;;57.42;21.05;;;6.80;99.90;;;;;;5130225;27;20054;-73
2022/01/19 02:51:22;;;;;;;57.72;21.42;;;7.70;99.90;;;;;;5132997;27;20070;-75
2022/01/19 02:53:48;;;;;;;54.55;21.77;;;7.20;99.90;;;;;;5116386;27;20073;-72
2022/01/19 02:56:24;;;;;;;62.33;22.88;;;6.70;99.90;;;;;;5117703;27;20031;-75
2022/01/19 02:58:55;;;;;;;63.45;22.70;;;6.80;99.90;;;;;;5109530;27;20087;-72
2022/01/19 03:09:27;;;;;;;58.00;21.13;;;7.70;99.90;;;;;;5133783;27;20057;-74
2022/01/19 03:11:54;;;;;;;51.72;20.95;;;7.00;99.90;;;;;;5134554;27;20029;-74
2022/01/19 03:14:20;;;;;;;54.75;21.00;;;7.20;99.90;;;;;;5134114;27;20031;-73
2022/01/19 03:16:46;;;;;;;54.58;21.20;;;6.70;99.90;;;;;;5135660;27;21018;-75
2022/01/19 03:19:12;;;;;;;48.20;20.33;;;6.70;99.90;;;;;;5111260;27;20037;-73
2022/01/19 03:21:41;;;;;;;51.42;21.15;;;7.50;99.90;;;;;;5135630;27;20125;-76
2022/01/19 03:24:08;;;;;;;67.45;21.45;;;6.70;99.90;;;;;;5116547;27;20038;-73
2022/01/19 03:26:34;;;;;;;54.60;19.92;;;6.80;99.90;;;;;;5132354;27;20042;-73
2022/01/19 03:29:00;;;;;;;54.55;20.73;;;6.60;99.90;;;;;;5132495;27;20125;-74
2022/01/19 03:31:26;;;;;;;59.45;22.58;;;7.30;99.90;;;;;;5134843;27;20038;-75
2022/01/19 03:33:51;;;;;;;61.75;21.25;;;6.80;99.90;;;;;;5134605;27;20431;-74
2022/01/19 03:36:17;;;;;;;51.50;20.65;;;6.60;99.90;;;;;;5115228;27;20117;-74
2022/01/19 03:38:43;;;;;;;61.15;19.88;;;7.60;99.90;;;;;;5130804;27;20050;-74
2022/01/19 03:41:09;;;;;;;56.10;22.50;;;6.60;99.90;;;;;;5116746;27;20517;-75
2022/01/19 03:43:35;;;;;;;54.00;20.40;;;7.70;99.90;;;;;;5133368;27;20042;-76
2022/01/19 03:46:04;;;;;;;52.47;21.33;;;7.40;99.90;;;;;;5131436;27;20129;-76
2022/01/19 03:51:05;;;;;;;;;;;6.70;99.90;;;;;;5133217;27;20049;-77
2022/01/19 03:53:31;;;;;;;46.17;19.70;;;6.80;99.90;;;;;;5116063;27;19937;-75
2022/01/19 03:55:57;;;;;;;58.05;22.88;;;6.80;99.90;;;;;;5130461;27;20054;-75
2022/01/19 03:58:23;;;;;;;50.88;20.65;;;7.20;99.90;;;;;;5134773;27;20026;-74
2022/01/19 04:00:54;;;;;;;50.67;21.75;;;7.00;99.90;;;;;;5134255;27;20049;-75
2022/01/19 04:03:25;;;;;;;48.05;21.13;;;7.00;99.90;;;;;;5133765;27;20039;-76
2022/01/19 04:06:28;;;;;;;56.85;21.75;;;7.00;99.90;;;;;;5133946;27;20042;-77
2022/01/19 04:08:43;;;;;;;53.42;21.52;;;6.80;99.90;;;;;;5125428;27;20130;-74
2022/01/19 04:11:08;;;;;;;54.08;21.08;;;6.90;99.90;;;;;;5131818;27;20039;-74
2022/01/19 04:13:57;;;;;;;52.60;20.33;;;6.90;99.90;;;;;;5116077;27;20113;-75
2022/01/19 04:16:19;;;;;;;60.90;22.98;;;6.60;99.90;;;;;;5106590;27;20039;-75
2022/01/19 04:18:45;;;;;;;56.03;22.98;;;6.60;99.90;;;;;;5096697;27;20393;-75
2022/01/19 04:21:13;;;;;;;53.53;23.35;;;7.60;99.90;;;;;;5122052;27;20046;-74
2022/01/19 04:23:39;;;;;;;50.00;20.45;;;7.20;99.90;;;;;;5096412;27;20034;-73
2022/01/19 04:26:05;;;;;;;67.30;25.35;;;7.70;99.90;;;;;;5133514;27;20049;-75
2022/01/19 04:28:31;;;;;;;54.33;22.05;;;7.10;99.90;;;;;;5114040;27;20041;-75
2022/01/19 04:30:57;;;;;;;52.53;22.38;;;6.80;99.90;;;;;;5130344;27;20038;-73
2022/01/19 04:33:26;;;;;;;64.75;24.85;;;6.70;99.90;;;;;;5116225;27;20074;-74
2022/01/19 04:35:54;;;;;;;66.90;26.98;;;7.70;99.90;;;;;;5134032;27;20091;-73
2022/01/19 05:07:38;;;;;;;59.58;24.17;;;7.10;99.90;;;;;;5129215;27;20046;-76
2022/01/19 05:13:25;;;;;;;48.15;21.33;;;6.80;99.90;;;;;;5133839;27;20052;-75
2022/01/19 05:15:36;;;;;;;51.33;22.48;;;6.80;99.90;;;;;;5129082;27;20034;-73
2022/01/19 05:18:03;;;;;;;54.50;23.33;;;7.50;99.90;;;;;;5115522;27;20122;-74
2022/01/19 05:20:29;;;;;;;52.65;22.60;;;7.30;99.90;;;;;;5131172;27;20053;-74
2022/01/19 05:22:55;;;;;;;55.67;21.92;;;6.90;99.90;;;;;;5132566;27;20050;-74
2022/01/19 05:25:21;;;;;;;49.28;22.88;;;7.50;99.90;;;;;;5113266;27;20038;-74
2022/01/19 05:27:47;;;;;;;48.60;21.00;;;7.50;99.90;;;;;;5114913;27;20399;-74
2022/01/19 05:30:14;;;;;;;47.05;21.55;;;6.70;99.90;;;;;;5133234;27;20043;-73
2022/01/19 05:32:40;;;;;;;45.97;20.42;;;7.50;99.90;;;;;;5097157;27;20049;-75
2022/01/19 05:35:06;;;;;;;39.08;19.33;;;6.70;99.90;;;;;;5132303;27;20560;-74
2022/01/19 05:37:36;;;;;;;51.53;22.42;;;6.70;99.90;;;;;;5101075;27;20039;-74
2022/01/19 05:40:04;;;;;;;53.08;22.98;;;7.40;99.90;;;;;;5133688;27;20558;-75
2022/01/19 05:42:30;;;;;;;48.65;21.80;;;6.50;99.90;;;;;;5132716;27;20447;-75
2022/01/19 05:44:56;;;;;;;53.17;23.17;;;7.30;99.90;;;;;;5080753;27;20042;-75
2022/01/19 05:47:21;;;;;;;46.85;20.23;;;6.50;99.90;;;;;;5097336;27;20394;-74
2022/01/19 05:49:47;;;;;;;50.85;21.42;;;6.50;99.90;;;;;;5132389;27;20031;-76
2022/01/19 05:52:13;;;;;;;48.53;22.40;;;6.50;99.90;;;;;;5081667;27;20035;-74
2022/01/19 05:54:39;;;;;;;44.55;20.75;;;6.70;99.90;;;;;;5117457;27;20030;-76
2022/01/19 05:57:05;;;;;;;53.75;23.08;;;6.40;99.90;;;;;;5113241;27;20038;-76
2022/01/19 05:59:31;;;;;;;42.60;20.75;;;6.70;99.90;;;;;;5132082;27;20095;-76
2022/01/19 06:01:57;;;;;;;48.88;21.58;;;6.60;99.90;;;;;;5098456;27;20138;-74
2022/01/19 06:04:23;;;;;;;45.17;20.10;;;7.10;99.90;;;;;;5112677;27;20042;-73
2022/01/19 06:06:50;;;;;;;48.42;22.15;;;7.30;99.90;;;;;;5130837;27;20031;-73
2022/01/19 06:09:34;;;;;;;47.75;23.55;;;7.30;99.90;;;;;;5114857;27;20043;-75
2022/01/19 06:12:07;;;;;;;47.37;21.23;;;7.30;99.90;;;;;;5102474;27;20082;-75
2022/01/19 06:14:34;;;;;;;47.38;21.05;;;7.00;99.90;;;;;;5114511;27;20034;-75
2022/01/19 06:17:01;;;;;;;51.60;20.85;;;7.20;99.90;;;;;;5129369;27;20038;-75
2022/01/19 06:19:27;;;;;;;42.75;18.65;;;7.10;99.90;;;;;;5114822;27;20054;-73
2022/01/19 06:21:53;;;;;;;47.63;22.55;;;6.70;99.90;;;;;;5114025;27;20081;-74
2022/01/19 06:24:19;;;;;;;50.00;23.73;;;7.30;99.90;;;;;;5114731;27;20661;-75
2022/01/19 06:26:45;;;;;;;46.40;21.73;;;7.20;99.90;;;;;;5120775;27;20038;-75
2022/01/19 06:29:10;;;;;;;46.72;23.42;;;7.30;99.90;;;;;;5116999;27;20398;-75
2022/01/19 06:31:36;;;;;;;44.40;21.42;;;7.20;99.90;;;;;;5115191;27;20042;-76
2022/01/19 06:34:02;;;;;;;42.85;20.60;;;7.00;99.90;;;;;;5129856;27;20050;-74
2022/01/19 06:36:28;;;;;;;51.08;22.70;;;7.20;99.90;;;;;;5133275;27;20074;-74
2022/01/19 06:38:53;;;;;;;42.05;20.38;;;6.40;99.90;;;;;;5137891;27;20521;-74
2022/01/19 06:41:19;;;;;;;37.65;19.67;;;7.00;99.90;;;;;;5120133;27;20035;-74
2022/01/19 06:43:45;;;;;;;40.25;20.77;;;6.40;99.90;;;;;;5097497;27;20035;-73
2022/01/19 06:46:10;;;;;;;47.65;21.98;;;6.40;99.90;;;;;;5135456;27;20055;-72
2022/01/19 06:48:37;;;;;;;43.78;21.63;;;7.10;99.90;;;;;;5135649;27;20042;-74
2022/01/19 06:51:02;;;;;;;46.55;21.63;;;6.50;99.90;;;;;;5119110;27;20072;-74
2022/01/19 06:53:28;;;;;;;50.20;21.95;;;6.90;99.90;;;;;;5118539;27;20079;-74
2022/01/19 06:55:57;;;;;;;43.25;20.88;;;6.50;99.90;;;;;;5117691;27;20057;-75
2022/01/19 06:58:23;;;;;;;48.78;21.77;;;6.60;99.90;;;;;;5116739;27;20550;-75
2022/01/19 07:00:50;;;;;;;40.55;20.70;;;6.20;99.90;;;;;;5135597;27;20043;-73
2022/01/19 07:03:15;;;;;;;41.33;19.83;;;6.30;99.90;;;;;;5115128;27;20039;-72
2022/01/19 07:05:41;;;;;;;43.97;21.48;;;6.30;99.90;;;;;;5095293;27;20035;-73
2022/01/19 07:08:07;;;;;;;42.72;19.70;;;6.30;99.90;;;;;;5116991;27;20428;-79
2022/01/19 07:10:33;;;;;;;55.17;23.63;;;7.10;99.90;;;;;;5122256;27;20336;-74
2022/01/19 07:13:00;;;;;;;44.58;21.42;;;6.90;99.90;;;;;;5134459;27;20099;-73
2022/01/19 07:15:26;;;;;;;41.33;19.77;;;6.20;99.90;;;;;;5118824;27;20456;-75
2022/01/19 07:17:51;;;;;;;42.97;19.80;;;6.30;99.90;;;;;;5118179;27;20035;-73
2022/01/19 07:20:17;;;;;;;42.28;19.40;;;7.00;99.90;;;;;;5100993;27;20451;-74
2022/01/19 07:22:44;;;;;;;46.47;21.60;;;6.20;99.90;;;;;;5097340;27;20082;-74
2022/01/19 07:25:11;;;;;;;40.08;20.95;;;6.50;99.90;;;;;;5118950;27;20579;-73
2022/01/19 07:27:36;;;;;;;46.63;21.05;;;6.20;99.90;;;;;;5119114;27;20383;-73
2022/01/19 07:30:04;;;;;;;47.05;21.17;;;6.40;99.90;;;;;;5118637;27;20039;-73
2022/01/19 07:32:34;;;;;;;40.10;20.13;;;6.90;99.90;;;;;;5134873;27;20069;-73
2022/01/19 07:35:00;;;;;;;46.50;21.55;;;6.90;99.90;;;;;;5117264;27;20074;-75
2022/01/19 07:37:26;;;;;;;44.78;21.52;;;6.20;99.90;;;;;;5133909;27;20042;-74
2022/01/19 07:39:52;;;;;;;49.53;23.85;;;6.30;99.90;;;;;;5136541;27;20088;-73
2022/01/19 07:42:17;;;;;;;47.03;21.23;;;6.90;99.90;;;;;;5118668;27;20066;-73
2022/01/19 07:44:43;;;;;;;54.15;23.73;;;7.00;99.90;;;;;;5136088;27;20074;-73
2022/01/19 07:47:09;;;;;;;45.38;21.23;;;7.00;99.90;;;;;;5136474;27;20039;-73
2022/01/19 07:49:34;;;;;;;44.22;20.23;;;6.60;99.90;;;;;;5135767;27;20045;-75
2022/01/19 07:52:00;;;;;;;47.05;23.05;;;6.50;99.90;;;;;;5101429;27;20038;-74
2022/01/19 07:54:26;;;;;;;45.63;21.67;;;6.80;99.90;;;;;;5117793;27;20038;-72
2022/01/19 07:56:52;;;;;;;51.45;23.98;;;6.30;99.90;;;;;;5113661;27;20031;-73
2022/01/19 07:59:17;;;;;;;47.35;21.60;;;6.20;99.90;;;;;;5082615;27;20091;-72
2022/01/19 08:01:44;;;;;;;47.55;21.90;;;6.90;99.90;;;;;;5115236;27;20045;-78
2022/01/19 08:04:09;;;;;;;50.38;23.52;;;6.30;99.90;;;;;;5128340;27;20083;-73
2022/01/19 08:06:36;;;;;;;45.28;20.98;;;6.50;99.90;;;;;;5104929;27;20042;-72
2022/01/19 08:09:03;;;;;;;45.20;21.83;;;6.50;99.90;;;;;;5131969;27;20050;-73
2022/01/19 08:11:29;;;;;;;53.33;23.35;;;6.60;99.90;;;;;;5103826;27;20039;-75
2022/01/19 08:13:55;;;;;;;51.83;21.90;;;7.10;99.90;;;;;;5116153;27;20035;-75
2022/01/19 08:16:21;;;;;;;57.80;23.95;;;6.40;99.90;;;;;;5097391;27;20039;-74
2022/01/19 08:18:48;;;;;;;49.22;23.45;;;6.20;99.90;;;;;;5130107;27;20636;-73
2022/01/19 08:21:14;;;;;;;52.03;24.15;;;6.20;99.90;;;;;;5134449;27;20087;-74
2022/01/19 08:23:39;;;;;;;57.55;24.45;;;7.30;99.90;;;;;;5113650;27;20047;-73
2022/01/19 08:26:05;;;;;;;50.03;23.50;;;6.20;99.90;;;;;;5113864;27;20467;-73
2022/01/19 08:28:31;;;;;;;52.85;22.85;;;6.60;99.90;;;;;;5113429;27;20039;-73
2022/01/19 08:30:57;;;;;;;53.05;23.27;;;6.10;99.90;;;;;;5130695;27;20043;-73
2022/01/19 08:33:23;;;;;;;53.15;23.75;;;6.30;99.90;;;;;;5113786;27;20041;-70
2022/01/19 08:35:49;;;;;;;56.38;24.45;;;6.90;99.90;;;;;;5110400;27;20098;-73
2022/01/19 08:38:14;;;;;;;52.03;24.48;;;6.30;99.90;;;;;;5111492;27;20499;-72
2022/01/19 08:40:40;;;;;;;58.05;24.50;;;6.30;99.90;;;;;;5112264;27;20043;-71
2022/01/19 08:43:06;;;;;;;56.55;26.52;;;6.90;99.90;;;;;;5131115;27;20047;-73
2022/01/19 08:45:33;;;;;;;51.63;23.25;;;6.70;99.90;;;;;;5130529;27;20058;-72
2022/01/19 08:47:59;;;;;;;51.45;24.85;;;6.80;99.90;;;;;;5128880;27;20039;-73
2022/01/19 08:50:24;;;;;;;57.10;26.98;;;6.20;99.90;;;;;;5113334;27;20115;-70
2022/01/19 08:52:50;;;;;;;56.78;25.20;;;6.70;99.90;;;;;;5130131;27;20035;-72
2022/01/19 08:55:17;;;;;;;61.28;26.10;;;6.10;99.90;;;;;;5113312;27;20077;-74
2022/01/19 08:57:44;;;;;;;54.53;25.30;;;6.80;99.90;;;;;;5126057;27;20061;-72
2022/01/19 09:00:12;;;;;;;55.95;25.10;;;6.20;99.90;;;;;;5129909;27;20054;-72
2022/01/19 09:02:39;;;;;;;56.38;27.08;;;6.90;99.90;;;;;;5111278;27;20183;-74
2022/01/19 09:05:05;;;;;;;54.03;25.52;;;6.30;99.90;;;;;;5130005;27;20479;-72
2022/01/19 09:07:31;;;;;;;55.13;26.60;;;6.60;99.90;;;;;;5113355;27;20043;-72
2022/01/19 09:09:57;;;;;;;54.65;25.42;;;6.90;99.90;;;;;;5129002;27;20054;-71
2022/01/19 09:12:24;;;;;;;54.45;25.73;;;7.00;99.90;;;;;;5113151;27;20035;-72
2022/01/19 09:14:49;;;;;;;55.13;26.10;;;6.90;99.90;;;;;;5129366;27;20118;-72
2022/01/19 09:17:15;;;;;;;55.42;25.50;;;6.40;99.90;;;;;;5112489;27;20475;-71
2022/01/19 09:19:41;;;;;;;58.65;27.17;;;6.20;99.90;;;;;;5129702;27;20168;-75
2022/01/19 09:22:09;;;;;;;53.92;24.73;;;6.30;99.90;;;;;;5129968;27;20043;-74
2022/01/19 09:24:36;;;;;;;54.75;25.73;;;6.10;99.90;;;;;;5124602;27;20043;-74
2022/01/19 09:27:03;;;;;;;53.50;26.17;;;6.20;99.90;;;;;;5110155;27;20052;-72
2022/01/19 09:29:29;;;;;;;51.45;24.05;;;6.50;99.90;;;;;;5104550;27;20039;-72
2022/01/19 09:31:57;;;;;;;58.22;23.75;;;6.50;99.90;;;;;;5105374;27;20122;-72
2022/01/19 09:34:23;;;;;;;62.88;27.35;;;6.80;99.90;;;;;;5122926;27;20101;-72
2022/01/19 09:36:49;;;;;;;49.83;25.40;;;6.70;99.90;;;;;;5122665;27;20065;-74
2022/01/19 09:39:22;;;;;;;58.42;26.85;;;6.90;99.90;;;;;;5122414;27;20341;-72
2022/01/19 09:41:49;;;;;;;60.70;28.38;;;6.40;99.90;;;;;;5105509;27;20210;-72
2022/01/19 09:44:19;;;;;;;52.22;24.35;;;6.20;99.90;;;;;;5122381;27;20051;-74
2022/01/19 09:46:45;;;;;;;55.00;25.23;;;6.80;99.90;;;;;;5122363;27;20050;-74
2022/01/19 09:49:12;;;;;;;55.28;24.80;;;6.60;99.90;;;;;;5088949;27;20043;-73
2022/01/19 09:51:43;;;;;;;52.28;24.60;;;6.20;99.90;;;;;;5122737;27;20715;-76
2022/01/19 09:54:12;;;;;;;50.70;24.10;;;6.70;99.90;;;;;;5122706;27;20068;-73
2022/01/19 09:56:38;;;;;;;59.47;28.13;;;6.30;99.90;;;;;;5122135;27;20032;-72
2022/01/19 09:59:04;;;;;;;56.25;24.80;;;6.60;99.90;;;;;;5121118;27;20083;-72
2022/01/19 10:01:29;;;;;;;50.38;26.10;;;6.70;99.90;;;;;;5121079;27;20039;-71
2022/01/19 10:03:56;;;;;;;52.25;24.55;;;6.20;99.90;;;;;;5088045;28;20158;-72
2022/01/19 10:06:23;;;;;;;51.00;27.13;;;6.70;99.90;;;;;;5088323;28;20080;-71
2022/01/19 10:08:55;;;;;;;54.53;25.38;;;6.60;99.90;;;;;;5121156;28;20039;-73
2022/01/19 10:17:00;;;;;;;56.20;27.70;;;6.00;99.90;;;;;;5122246;28;20527;-71
2022/01/19 10:19:27;;;;;;;54.42;26.77;;;6.30;99.90;;;;;;5122268;28;20074;-72
2022/01/19 10:22:08;;;;;;;49.42;25.63;;;6.50;99.90;;;;;;5121690;28;20515;-70
2022/01/19 10:24:37;;;;;;;51.78;26.33;;;6.40;99.90;;;;;;5122190;28;20395;-72
2022/01/19 10:27:33;;;;;;;53.60;25.98;;;6.40;99.90;;;;;;5123232;28;20138;-72
2022/01/19 10:30:02;;;;;;;53.25;26.60;;;6.10;99.90;;;;;;5102501;28;20040;-73
2022/01/19 10:32:29;;;;;;;54.28;25.92;;;5.90;99.90;;;;;;5109893;28;20043;-75
2022/01/19 10:34:54;;;;;;;52.40;27.85;;;6.50;99.90;;;;;;5104388;28;20035;-73
2022/01/19 10:37:28;;;;;;;52.55;25.60;;;6.50;99.90;;;;;;5097794;28;20040;-74
2022/01/19 10:39:57;;;;;;;61.15;29.33;;;6.00;99.90;;;;;;5121472;28;20055;-72
2022/01/19 10:42:29;;;;;;;52.35;25.15;;;6.30;99.90;;;;;;5122493;28;20046;-72
2022/01/19 10:45:03;;;;;;;53.95;26.73;;;6.70;99.90;;;;;;5118979;28;20521;-73
2022/01/19 10:47:53;;;;;;;53.90;26.07;;;6.30;99.90;;;;;;5102495;28;20039;-72
2022/01/19 10:50:33;;;;;;;61.03;27.13;;;6.00;99.90;;;;;;5122613;28;20043;-71
2022/01/19 10:53:01;;;;;;;55.45;28.95;;;6.60;99.90;;;;;;5121716;28;20072;-72
2022/01/19 10:55:40;;;;;;;57.22;27.88;;;6.40;99.90;;;;;;5105327;28;20607;-72
2022/01/19 10:58:13;;;;;;;53.35;27.98;;;6.10;99.90;;;;;;5103277;28;20044;-73
2022/01/19 11:00:40;;;;;;;58.83;30.55;;;6.40;99.90;;;;;;5121662;28;20616;-72
2022/01/19 11:03:21;;;;;;;54.45;28.05;;;6.50;99.90;;;;;;5104460;28;20039;-73
2022/01/19 11:05:55;;;;;;;55.60;27.67;;;6.60;99.90;;;;;;5121837;28;20436;-73
2022/01/19 11:08:24;;;;;;;58.38;26.98;;;6.80;99.90;;;;;;5105268;28;20445;-72
2022/01/19 11:10:53;;;;;;;60.65;29.98;;;6.90;99.90;;;;;;5121512;27;20080;-74
2022/01/19 11:15:53;;;;;;;59.97;30.05;;;6.50;99.90;;;;;;5125200;27;20071;-72
2022/01/19 11:18:22;;;;;;;56.10;26.95;;;6.40;99.90;;;;;;5122147;27;20066;-71
2022/01/19 11:20:49;;;;;;;61.58;29.77;;;6.30;99.90;;;;;;5119894;27;20066;-72
2022/01/19 11:23:48;;;;;;;57.65;28.20;;;6.80;99.90;;;;;;5091236;27;20464;-72
2022/01/19 11:26:16;;;;;;;55.83;28.23;;;6.40;99.90;;;;;;5073818;28;20044;-71
2022/01/19 11:28:47;;;;;;;58.22;30.52;;;6.70;99.90;;;;;;5104026;28;20052;-72
2022/01/19 11:31:19;;;;;;;54.90;28.52;;;6.40;99.90;;;;;;5104452;28;20046;-72
2022/01/19 11:33:51;;;;;;;58.60;29.30;;;6.30;99.90;;;;;;5104018;28;20146;-74
2022/01/19 11:36:24;;;;;;;59.55;27.92;;;6.80;99.90;;;;;;5087355;28;20044;-73
2022/01/19 11:39:03;;;;;;;46.53;26.58;;;6.80;99.90;;;;;;5087139;28;20070;-73
2022/01/19 11:41:37;;;;;;;55.10;27.67;;;6.30;99.90;;;;;;5104885;28;20093;-74
2022/01/19 11:44:04;;;;;;;55.30;28.38;;;6.90;99.90;;;;;;5104284;28;20430;-73
2022/01/19 11:46:33;;;;;;;62.83;30.85;;;6.50;99.90;;;;;;5088568;28;20096;-73
2022/01/19 11:49:02;;;;;;;64.50;31.42;;;6.70;99.90;;;;;;5104333;28;20511;-73
2022/01/19 11:51:34;;;;;;;61.25;31.65;;;6.60;99.90;;;;;;5103966;28;20569;-72
2022/01/19 11:54:21;;;;;;;59.55;28.98;;;7.00;99.90;;;;;;5103742;28;20146;-73
2022/01/19 11:56:59;;;;;;;59.38;29.98;;;7.00;99.90;;;;;;5103444;28;20610;-73
2022/01/19 11:59:55;;;;;;;66.30;32.03;;;6.90;99.90;;;;;;5102543;28;20689;-73
2022/01/19 12:02:21;;;;;;;66.40;30.98;;;6.80;99.90;;;;;;5067476;28;20051;-73
2022/01/19 12:05:09;;;;;;;60.63;30.75;;;7.10;99.90;;;;;;5099104;28;20039;-73
2022/01/19 12:07:45;;;;;;;59.17;29.42;;;6.90;99.90;;;;;;5072108;28;20043;-72
2022/01/19 12:10:13;;;;;;;61.42;32.00;;;7.10;99.90;;;;;;5087156;28;20044;-72
2022/01/19 12:12:55;;;;;;;57.08;29.17;;;7.20;99.90;;;;;;5086968;28;20035;-73
2022/01/19 12:15:45;;;;;;;57.17;30.27;;;6.60;99.90;;;;;;5103688;28;20123;-72
2022/01/19 12:18:47;;;;;;;56.45;28.85;;;6.70;99.90;;;;;;5103536;28;20142;-72
2022/01/19 12:21:35;;;;;;;59.85;31.33;;;7.20;99.90;;;;;;5102397;28;20150;-72
2022/01/19 12:24:32;;;;;;;54.17;29.52;;;7.00;99.90;;;;;;5115437;27;20708;-72
2022/01/19 12:27:12;;;;;;;53.83;29.23;;;6.90;99.90;;;;;;5127413;27;20082;-72
2022/01/19 12:29:45;;;;;;;52.45;24.73;;;6.60;99.90;;;;;;5127166;27;20038;-70
2022/01/19 12:32:16;;;;;;;54.47;27.95;;;6.90;99.90;;;;;;5127482;27;20042;-74
2022/01/19 12:34:49;;;;;;;54.97;27.55;;;7.20;99.90;;;;;;5109819;27;20073;-72
2022/01/19 12:37:27;;;;;;;58.08;28.65;;;6.70;99.90;;;;;;5110575;27;20581;-72
2022/01/19 12:39:57;;;;;;;61.60;29.02;;;6.60;99.90;;;;;;5126254;27;20038;-74
2022/01/19 12:42:29;;;;;;;64.60;30.25;;;6.90;99.90;;;;;;5109923;27;20047;-70
2022/01/19 12:45:00;;;;;;;52.38;28.08;;;6.70;99.90;;;;;;5126446;27;20706;-73
2022/01/19 12:47:29;;;;;;;51.42;26.02;;;6.90;99.90;;;;;;5110307;27;20043;-72
2022/01/19 12:49:58;;;;;;;50.72;27.45;;;7.20;99.90;;;;;;5126078;27;20051;-73
2022/01/19 12:52:29;;;;;;;51.85;26.13;;;6.70;99.90;;;;;;5109781;27;20091;-73
2022/01/19 12:55:00;;;;;;;54.95;28.42;;;7.20;99.90;;;;;;5126112;27;20115;-71
2022/01/19 12:57:29;;;;;;;59.20;27.13;;;6.80;99.90;;;;;;5109712;27;20607;-72
2022/01/19 12:59:55;;;;;;;61.05;27.85;;;7.00;99.90;;;;;;5125631;27;20074;-74
2022/01/19 13:02:28;;;;;;;51.17;27.38;;;7.20;99.90;;;;;;5110223;27;20145;-74
2022/01/19 13:05:21;;;;;;;51.03;26.15;;;6.80;99.90;;;;;;5126673;27;20039;-73
2022/01/19 13:07:53;;;;;;;44.25;23.20;;;7.00;99.90;;;;;;5125944;27;20372;-71
2022/01/19 13:10:45;;;;;;;51.40;23.75;;;6.90;99.90;;;;;;5108749;27;20702;-74
2022/01/19 13:13:13;;;;;;;57.83;25.92;;;6.80;99.90;;;;;;5109658;27;20126;-71
2022/01/19 13:15:45;;;;;;;49.72;25.42;;;7.10;99.90;;;;;;5126989;27;20215;-72
2022/01/19 13:18:17;;;;;;;51.25;25.50;;;7.30;99.90;;;;;;5107994;27;20039;-73
2022/01/19 13:20:54;;;;;;;51.53;25.90;;;7.00;99.90;;;;;;5114620;27;20050;-71
2022/01/19 13:23:20;;;;;;;54.80;26.23;;;7.10;99.90;;;;;;5125842;27;20086;-70
2022/01/19 13:25:55;;;;;;;45.80;23.27;;;7.10;99.90;;;;;;5126029;27;20638;-72
2022/01/19 13:28:30;;;;;;;;;;;6.80;99.90;;;;;;5126894;27;20046;-70
2022/01/19 13:31:08;;;;;;;53.03;25.05;;;6.90;99.90;;;;;;5108194;27;19975;-72
2022/01/19 13:33:33;;;;;;;46.90;24.48;;;6.80;99.90;;;;;;5125429;27;20047;-74
2022/01/19 13:36:03;;;;;;;46.38;22.65;;;6.70;99.90;;;;;;5108978;27;20045;-73
2022/01/19 13:38:29;;;;;;;48.55;24.83;;;7.10;99.90;;;;;;5126397;27;20141;-72
2022/01/19 13:41:07;;;;;;;50.25;24.08;;;7.20;99.90;;;;;;5090729;27;20125;-72
2022/01/19 13:43:35;;;;;;;50.80;26.63;;;7.00;99.90;;;;;;5124927;27;20065;-72
2022/01/19 13:46:15;;;;;;;50.40;24.17;;;6.80;99.90;;;;;;5126082;27;20042;-72
2022/01/19 13:48:44;;;;;;;51.72;26.25;;;7.10;99.90;;;;;;5126206;27;20047;-72
2022/01/19 13:51:15;;;;;;;49.75;25.33;;;6.80;99.90;;;;;;5124623;27;20043;-71
2022/01/19 13:53:49;;;;;;;55.90;27.15;;;6.70;99.90;;;;;;5088587;27;20073;-73
2022/01/19 13:56:22;;;;;;;;;;;7.10;99.90;;;;;;5106187;27;20035;-72
2022/01/19 13:58:55;;;;;;;53.33;24.67;;;6.90;99.90;;;;;;5115895;27;19991;-74
2022/01/19 14:01:57;;;;;;;51.05;24.55;;;7.30;99.90;;;;;;5109019;27;20702;-69
2022/01/19 14:04:24;;;;;;;56.75;26.50;;;7.30;99.90;;;;;;5105241;27;20450;-72
2022/01/19 14:06:50;;;;;;;57.58;28.42;;;6.90;99.90;;;;;;5116381;27;20038;-71
2022/01/19 14:09:21;;;;;;;60.60;28.20;;;6.90;99.90;;;;;;5108900;27;20046;-73